sensor_id;sensor_type;location;lat;lon;timestamp;pressure;altitude;pressure_sealevel;temperature;humidity
22257;BME280;11297;42.686;23.374;2023-03-23T00:00:09;94967.75;;;11.34;69.04
22257;BME280;11297;42.686;23.374;2023-03-23T00:02:34;94964.88;;;11.27;68.44
22257;BME280;11297;42.686;23.374;2023-03-23T00:05:04;94976.03;;;11.36;68.46
22257;BME280;11297;42.686;23.374;2023-03-23T00:07:30;94971.59;;;11.36;68.39
22257;BME280;11297;42.686;23.374;2023-03-23T00:09:55;94971.31;;;11.38;68.80
22257;BME280;11297;42.686;23.374;2023-03-23T00:12:25;94974.66;;;11.38;68.32
22257;BME280;11297;42.686;23.374;2023-03-23T00:14:55;94968.69;;;11.38;68.57
22257;BME280;11297;42.686;23.374;2023-03-23T00:17:20;94977.25;;;11.38;68.31
22257;BME280;11297;42.686;23.374;2023-03-23T00:19:45;94970.06;;;11.35;68.62
22257;BME280;11297;42.686;23.374;2023-03-23T00:22:13;94975.44;;;11.39;68.56
22257;BME280;11297;42.686;23.374;2023-03-23T00:24:39;94984.94;;;11.43;68.81
22257;BME280;11297;42.686;23.374;2023-03-23T00:27:05;94982.31;;;11.43;68.70
22257;BME280;11297;42.686;23.374;2023-03-23T00:29:30;94991.94;;;11.43;68.72
22257;BME280;11297;42.686;23.374;2023-03-23T00:31:57;94980.78;;;11.42;68.49
22257;BME280;11297;42.686;23.374;2023-03-23T00:34:23;94993.94;;;11.37;68.38
22257;BME280;11297;42.686;23.374;2023-03-23T00:36:54;94977.69;;;11.23;68.90
22257;BME280;11297;42.686;23.374;2023-03-23T00:39:22;94991.63;;;11.27;69.19
22257;BME280;11297;42.686;23.374;2023-03-23T00:41:50;94993.00;;;11.16;69.00
22257;BME280;11297;42.686;23.374;2023-03-23T00:44:15;94996.03;;;11.18;68.27
22257;BME280;11297;42.686;23.374;2023-03-23T00:46:47;94997.25;;;11.12;67.42
22257;BME280;11297;42.686;23.374;2023-03-23T00:49:18;94999.81;;;11.04;66.77
22257;BME280;11297;42.686;23.374;2023-03-23T00:51:44;94999.03;;;10.95;66.64
22257;BME280;11297;42.686;23.374;2023-03-23T00:54:10;95001.41;;;10.75;66.65
22257;BME280;11297;42.686;23.374;2023-03-23T00:56:37;95003.81;;;10.63;66.56
22257;BME280;11297;42.686;23.374;2023-03-23T00:59:04;95010.66;;;10.59;66.88
22257;BME280;11297;42.686;23.374;2023-03-23T01:01:29;94998.09;;;10.52;66.83
22257;BME280;11297;42.686;23.374;2023-03-23T01:03:55;95003.69;;;10.46;66.88
22257;BME280;11297;42.686;23.374;2023-03-23T01:06:27;95010.00;;;10.23;67.78
22257;BME280;11297;42.686;23.374;2023-03-23T01:08:53;95001.19;;;9.67;69.89
22257;BME280;11297;42.686;23.374;2023-03-23T01:11:19;94998.41;;;9.15;72.59
22257;BME280;11297;42.686;23.374;2023-03-23T01:13:45;94995.56;;;8.77;75.73
22257;BME280;11297;42.686;23.374;2023-03-23T01:16:11;94996.50;;;8.54;78.03
22257;BME280;11297;42.686;23.374;2023-03-23T01:18:37;94998.97;;;8.32;80.07
22257;BME280;11297;42.686;23.374;2023-03-23T01:21:07;94990.53;;;8.40;82.04
22257;BME280;11297;42.686;23.374;2023-03-23T01:23:34;94986.69;;;8.38;82.48
22257;BME280;11297;42.686;23.374;2023-03-23T01:26:20;94995.78;;;8.22;83.96
22257;BME280;11297;42.686;23.374;2023-03-23T01:28:46;94992.41;;;8.21;85.04
22257;BME280;11297;42.686;23.374;2023-03-23T01:31:14;94986.41;;;8.07;86.78
22257;BME280;11297;42.686;23.374;2023-03-23T01:33:42;94976.06;;;8.07;87.49
22257;BME280;11297;42.686;23.374;2023-03-23T01:36:25;94977.09;;;8.07;88.47
22257;BME280;11297;42.686;23.374;2023-03-23T01:38:54;94975.78;;;8.09;88.97
22257;BME280;11297;42.686;23.374;2023-03-23T01:41:20;94978.59;;;8.12;89.08
22257;BME280;11297;42.686;23.374;2023-03-23T01:44:06;94984.06;;;8.24;88.74
22257;BME280;11297;42.686;23.374;2023-03-23T01:46:34;94974.25;;;8.40;88.77
22257;BME280;11297;42.686;23.374;2023-03-23T01:49:06;94961.91;;;8.50;87.90
22257;BME280;11297;42.686;23.374;2023-03-23T01:51:36;94964.78;;;8.62;87.51
22257;BME280;11297;42.686;23.374;2023-03-23T01:54:04;94973.31;;;8.76;86.39
22257;BME280;11297;42.686;23.374;2023-03-23T01:56:38;94971.69;;;8.80;85.91
22257;BME280;11297;42.686;23.374;2023-03-23T01:59:07;94964.28;;;8.87;85.71
22257;BME280;11297;42.686;23.374;2023-03-23T02:01:34;94965.91;;;8.96;85.49
22257;BME280;11297;42.686;23.374;2023-03-23T02:04:03;94969.16;;;9.02;84.82
22257;BME280;11297;42.686;23.374;2023-03-23T02:06:30;94977.88;;;9.19;84.54
22257;BME280;11297;42.686;23.374;2023-03-23T02:08:55;94976.13;;;9.28;83.50
22257;BME280;11297;42.686;23.374;2023-03-23T02:11:21;94979.75;;;9.27;80.56
22257;BME280;11297;42.686;23.374;2023-03-23T02:13:48;94978.53;;;9.24;79.42
22257;BME280;11297;42.686;23.374;2023-03-23T02:27:33;94965.25;;;9.39;76.29
22257;BME280;11297;42.686;23.374;2023-03-23T02:30:08;94971.88;;;9.45;75.99
22257;BME280;11297;42.686;23.374;2023-03-23T02:35:11;94977.50;;;9.47;75.98
22257;BME280;11297;42.686;23.374;2023-03-23T02:37:49;94982.88;;;9.51;75.60
22257;BME280;11297;42.686;23.374;2023-03-23T02:40:20;94987.03;;;9.38;74.90
22257;BME280;11297;42.686;23.374;2023-03-23T02:42:50;94989.66;;;9.25;74.49
22257;BME280;11297;42.686;23.374;2023-03-23T02:45:17;94986.91;;;9.08;73.91
22257;BME280;11297;42.686;23.374;2023-03-23T02:47:45;94994.88;;;8.98;73.78
22257;BME280;11297;42.686;23.374;2023-03-23T02:50:14;94996.91;;;8.88;74.53
22257;BME280;11297;42.686;23.374;2023-03-23T02:52:42;94996.22;;;8.69;74.63
22257;BME280;11297;42.686;23.374;2023-03-23T02:55:09;95008.28;;;8.60;73.50
22257;BME280;11297;42.686;23.374;2023-03-23T02:57:37;95004.81;;;8.51;72.84
22257;BME280;11297;42.686;23.374;2023-03-23T03:00:04;94997.16;;;8.46;72.95
22257;BME280;11297;42.686;23.374;2023-03-23T03:02:34;95007.38;;;8.38;73.04
22257;BME280;11297;42.686;23.374;2023-03-23T03:07:35;95025.34;;;8.48;73.05
22257;BME280;11297;42.686;23.374;2023-03-23T03:10:08;95021.88;;;8.39;72.59
22257;BME280;11297;42.686;23.374;2023-03-23T03:18:55;95030.69;;;8.38;72.97
22257;BME280;11297;42.686;23.374;2023-03-23T03:21:23;95028.47;;;8.31;72.63
22257;BME280;11297;42.686;23.374;2023-03-23T03:23:54;95033.75;;;8.26;73.20
22257;BME280;11297;42.686;23.374;2023-03-23T03:26:22;95026.53;;;8.23;74.44
22257;BME280;11297;42.686;23.374;2023-03-23T03:28:52;95033.66;;;8.31;74.04
22257;BME280;11297;42.686;23.374;2023-03-23T03:31:21;95006.00;;;8.13;74.79
22257;BME280;11297;42.686;23.374;2023-03-23T03:33:47;95033.97;;;8.43;74.58
22257;BME280;11297;42.686;23.374;2023-03-23T03:36:18;95039.91;;;8.57;74.78
22257;BME280;11297;42.686;23.374;2023-03-23T03:38:48;95037.16;;;8.67;74.63
22257;BME280;11297;42.686;23.374;2023-03-23T03:41:15;95032.38;;;8.74;73.89
22257;BME280;11297;42.686;23.374;2023-03-23T03:43:41;95039.47;;;8.82;73.92
22257;BME280;11297;42.686;23.374;2023-03-23T03:46:06;95017.03;;;8.77;73.28
22257;BME280;11297;42.686;23.374;2023-03-23T03:48:32;95032.97;;;8.84;73.14
22257;BME280;11297;42.686;23.374;2023-03-23T03:50:58;95030.75;;;8.91;73.19
22257;BME280;11297;42.686;23.374;2023-03-23T03:53:26;95022.69;;;8.93;72.54
22257;BME280;11297;42.686;23.374;2023-03-23T03:55:51;95033.25;;;8.96;72.51
22257;BME280;11297;42.686;23.374;2023-03-23T03:58:21;95031.13;;;8.98;72.49
22257;BME280;11297;42.686;23.374;2023-03-23T04:00:46;95025.19;;;8.98;72.78
22257;BME280;11297;42.686;23.374;2023-03-23T04:03:13;95034.88;;;9.05;72.27
22257;BME280;11297;42.686;23.374;2023-03-23T04:05:38;95023.19;;;9.08;72.22
22257;BME280;11297;42.686;23.374;2023-03-23T04:08:04;95022.09;;;9.09;71.56
22257;BME280;11297;42.686;23.374;2023-03-23T04:10:31;95020.78;;;9.11;72.14
22257;BME280;11297;42.686;23.374;2023-03-23T04:12:56;95019.16;;;9.15;71.89
22257;BME280;11297;42.686;23.374;2023-03-23T04:15:22;95012.03;;;9.21;71.90
22257;BME280;11297;42.686;23.374;2023-03-23T04:17:48;95018.16;;;9.25;71.32
22257;BME280;11297;42.686;23.374;2023-03-23T04:20:15;95008.78;;;9.29;71.33
22257;BME280;11297;42.686;23.374;2023-03-23T04:22:44;95009.06;;;9.27;70.92
22257;BME280;11297;42.686;23.374;2023-03-23T04:25:15;95023.44;;;9.33;71.35
22257;BME280;11297;42.686;23.374;2023-03-23T04:27:41;95025.47;;;9.36;70.88
22257;BME280;11297;42.686;23.374;2023-03-23T04:30:12;95025.25;;;9.33;70.75
22257;BME280;11297;42.686;23.374;2023-03-23T04:32:39;95029.09;;;9.35;70.47
22257;BME280;11297;42.686;23.374;2023-03-23T04:35:10;95028.50;;;9.38;70.42
22257;BME280;11297;42.686;23.374;2023-03-23T04:37:37;95028.69;;;9.42;70.54
22257;BME280;11297;42.686;23.374;2023-03-23T04:40:03;95033.88;;;9.42;70.94
22257;BME280;11297;42.686;23.374;2023-03-23T04:42:36;95017.69;;;9.36;70.40
22257;BME280;11297;42.686;23.374;2023-03-23T04:45:03;95029.28;;;9.39;70.78
22257;BME280;11297;42.686;23.374;2023-03-23T04:47:32;95037.28;;;9.29;70.75
22257;BME280;11297;42.686;23.374;2023-03-23T04:49:58;95031.41;;;9.23;71.25
22257;BME280;11297;42.686;23.374;2023-03-23T04:52:27;95038.63;;;9.26;71.82
22257;BME280;11297;42.686;23.374;2023-03-23T04:54:56;95028.44;;;9.30;71.47
22257;BME280;11297;42.686;23.374;2023-03-23T04:57:22;95040.34;;;9.31;71.74
22257;BME280;11297;42.686;23.374;2023-03-23T04:59:48;95036.97;;;9.44;71.69
22257;BME280;11297;42.686;23.374;2023-03-23T05:02:14;95036.97;;;9.44;71.37
22257;BME280;11297;42.686;23.374;2023-03-23T05:04:40;95047.41;;;9.52;71.86
22257;BME280;11297;42.686;23.374;2023-03-23T05:07:06;95045.59;;;9.52;71.98
22257;BME280;11297;42.686;23.374;2023-03-23T05:09:33;95047.09;;;9.53;72.49
22257;BME280;11297;42.686;23.374;2023-03-23T05:12:04;95045.38;;;9.62;72.15
22257;BME280;11297;42.686;23.374;2023-03-23T05:14:29;95056.56;;;9.71;71.28
22257;BME280;11297;42.686;23.374;2023-03-23T05:16:55;95055.69;;;9.76;71.76
22257;BME280;11297;42.686;23.374;2023-03-23T05:19:21;95058.78;;;9.78;71.79
22257;BME280;11297;42.686;23.374;2023-03-23T05:21:46;95067.75;;;9.72;71.26
22257;BME280;11297;42.686;23.374;2023-03-23T05:24:12;95065.47;;;9.57;71.39
22257;BME280;11297;42.686;23.374;2023-03-23T05:26:37;95056.53;;;9.50;71.70
22257;BME280;11297;42.686;23.374;2023-03-23T05:29:02;95067.66;;;9.50;72.41
22257;BME280;11297;42.686;23.374;2023-03-23T05:31:28;95068.84;;;9.44;72.68
22257;BME280;11297;42.686;23.374;2023-03-23T05:33:53;95069.00;;;9.61;78.90
22257;BME280;11297;42.686;23.374;2023-03-23T05:36:19;95070.41;;;9.67;76.13
22257;BME280;11297;42.686;23.374;2023-03-23T05:38:45;95076.41;;;9.67;74.39
22257;BME280;11297;42.686;23.374;2023-03-23T05:41:13;95073.31;;;9.65;73.94
22257;BME280;11297;42.686;23.374;2023-03-23T05:43:39;95078.03;;;10.34;83.88
22257;BME280;11297;42.686;23.374;2023-03-23T05:46:05;95072.09;;;12.13;98.53
22257;BME280;11297;42.686;23.374;2023-03-23T05:48:32;95084.19;;;13.50;100.00
22257;BME280;11297;42.686;23.374;2023-03-23T05:50:58;95086.34;;;14.46;99.23
22257;BME280;11297;42.686;23.374;2023-03-23T05:53:23;95067.06;;;14.51;79.81
22257;BME280;11297;42.686;23.374;2023-03-23T05:55:49;95083.09;;;14.29;64.72
22257;BME280;11297;42.686;23.374;2023-03-23T05:58:14;95083.00;;;13.97;60.62
22257;BME280;11297;42.686;23.374;2023-03-23T06:00:40;95075.88;;;13.57;60.91
22257;BME280;11297;42.686;23.374;2023-03-23T06:03:05;95079.50;;;13.36;60.95
22257;BME280;11297;42.686;23.374;2023-03-23T06:05:31;95090.22;;;13.05;61.09
22257;BME280;11297;42.686;23.374;2023-03-23T06:07:58;95086.28;;;12.74;61.59
22257;BME280;11297;42.686;23.374;2023-03-23T06:10:24;95075.47;;;12.39;63.36
22257;BME280;11297;42.686;23.374;2023-03-23T06:12:50;95089.41;;;12.26;63.77
22257;BME280;11297;42.686;23.374;2023-03-23T06:15:19;95090.28;;;11.79;64.88
22257;BME280;11297;42.686;23.374;2023-03-23T06:24:28;95102.97;;;11.25;68.90
22257;BME280;11297;42.686;23.374;2023-03-23T06:26:54;95106.78;;;11.28;69.99
22257;BME280;11297;42.686;23.374;2023-03-23T06:29:20;95097.00;;;11.55;70.93
22257;BME280;11297;42.686;23.374;2023-03-23T06:31:50;95060.22;;;11.48;72.92
22257;BME280;11297;42.686;23.374;2023-03-23T06:34:16;95095.69;;;11.99;70.09
22257;BME280;11297;42.686;23.374;2023-03-23T06:36:42;95092.31;;;12.41;72.32
22257;BME280;11297;42.686;23.374;2023-03-23T06:39:09;95078.63;;;12.69;71.47
22257;BME280;11297;42.686;23.374;2023-03-23T06:41:35;95096.78;;;13.11;69.79
22257;BME280;11297;42.686;23.374;2023-03-23T06:44:00;95093.88;;;13.50;68.21
22257;BME280;11297;42.686;23.374;2023-03-23T06:46:26;95100.34;;;14.01;67.40
22257;BME280;11297;42.686;23.374;2023-03-23T06:48:53;95096.50;;;14.07;63.26
22257;BME280;11297;42.686;23.374;2023-03-23T06:51:19;95113.09;;;14.64;66.83
22257;BME280;11297;42.686;23.374;2023-03-23T06:53:44;95106.97;;;14.39;61.65
22257;BME280;11297;42.686;23.374;2023-03-23T06:56:10;95106.38;;;14.22;60.60
22257;BME280;11297;42.686;23.374;2023-03-23T06:58:37;95112.09;;;14.56;61.15
22257;BME280;11297;42.686;23.374;2023-03-23T07:07:46;95111.28;;;14.76;58.45
22257;BME280;11297;42.686;23.374;2023-03-23T07:10:11;95112.00;;;14.97;59.36
22257;BME280;11297;42.686;23.374;2023-03-23T07:12:37;95106.44;;;14.98;57.13
22257;BME280;11297;42.686;23.374;2023-03-23T07:15:03;95110.91;;;15.42;61.66
22257;BME280;11297;42.686;23.374;2023-03-23T07:17:29;95096.09;;;15.58;57.63
22257;BME280;11297;42.686;23.374;2023-03-23T07:19:55;95106.75;;;15.65;55.78
22257;BME280;11297;42.686;23.374;2023-03-23T07:22:20;95109.50;;;15.80;57.39
22257;BME280;11297;42.686;23.374;2023-03-23T07:24:46;95108.66;;;16.15;54.75
22257;BME280;11297;42.686;23.374;2023-03-23T07:27:11;95104.47;;;16.50;54.36
22257;BME280;11297;42.686;23.374;2023-03-23T07:29:37;95103.22;;;16.59;54.67
22257;BME280;11297;42.686;23.374;2023-03-23T07:32:04;95103.22;;;16.59;54.56
22257;BME280;11297;42.686;23.374;2023-03-23T07:34:30;95098.41;;;16.61;53.75
22257;BME280;11297;42.686;23.374;2023-03-23T07:36:57;95111.56;;;17.19;62.30
22257;BME280;11297;42.686;23.374;2023-03-23T07:39:22;95110.97;;;18.02;55.94
22257;BME280;11297;42.686;23.374;2023-03-23T07:41:49;95108.72;;;18.54;55.87
22257;BME280;11297;42.686;23.374;2023-03-23T07:44:14;95113.69;;;19.15;56.48
22257;BME280;11297;42.686;23.374;2023-03-23T07:46:40;95122.09;;;19.43;54.62
22257;BME280;11297;42.686;23.374;2023-03-23T07:49:07;95111.72;;;19.53;55.41
22257;BME280;11297;42.686;23.374;2023-03-23T07:51:33;95110.28;;;20.29;52.41
22257;BME280;11297;42.686;23.374;2023-03-23T07:53:59;95111.63;;;20.46;49.93
22257;BME280;11297;42.686;23.374;2023-03-23T07:56:25;95117.97;;;20.12;57.50
22257;BME280;11297;42.686;23.374;2023-03-23T07:58:51;95119.84;;;20.41;53.88
22257;BME280;11297;42.686;23.374;2023-03-23T08:01:16;95119.84;;;20.99;49.23
22257;BME280;11297;42.686;23.374;2023-03-23T08:03:42;95106.44;;;20.82;53.47
22257;BME280;11297;42.686;23.374;2023-03-23T08:06:08;95120.50;;;21.61;46.46
22257;BME280;11297;42.686;23.374;2023-03-23T08:08:35;95119.22;;;21.09;44.96
22257;BME280;11297;42.686;23.374;2023-03-23T08:11:01;95114.31;;;21.11;43.39
22257;BME280;11297;42.686;23.374;2023-03-23T08:13:26;95123.63;;;21.34;51.36
22257;BME280;11297;42.686;23.374;2023-03-23T08:15:52;95113.25;;;21.19;45.45
22257;BME280;11297;42.686;23.374;2023-03-23T08:18:18;95124.03;;;21.40;50.11
22257;BME280;11297;42.686;23.374;2023-03-23T08:20:44;95118.84;;;21.47;45.25
22257;BME280;11297;42.686;23.374;2023-03-23T08:23:10;95113.75;;;21.71;45.08
22257;BME280;11297;42.686;23.374;2023-03-23T08:25:36;95115.06;;;21.11;42.84
22257;BME280;11297;42.686;23.374;2023-03-23T08:28:02;95111.16;;;21.35;41.72
22257;BME280;11297;42.686;23.374;2023-03-23T08:30:28;95111.31;;;21.49;41.19
22257;BME280;11297;42.686;23.374;2023-03-23T08:32:57;95105.53;;;21.40;45.93
22257;BME280;11297;42.686;23.374;2023-03-23T08:35:23;95116.25;;;22.00;46.46
22257;BME280;11297;42.686;23.374;2023-03-23T08:37:49;95093.91;;;21.11;42.23
22257;BME280;11297;42.686;23.374;2023-03-23T08:40:21;95110.88;;;21.86;43.81
22257;BME280;11297;42.686;23.374;2023-03-23T08:42:48;95099.84;;;22.31;42.33
22257;BME280;11297;42.686;23.374;2023-03-23T08:45:16;95104.00;;;22.32;40.87
22257;BME280;11297;42.686;23.374;2023-03-23T08:47:42;95108.78;;;22.80;41.13
22257;BME280;11297;42.686;23.374;2023-03-23T08:50:11;95102.16;;;22.36;45.42
22257;BME280;11297;42.686;23.374;2023-03-23T08:52:37;95104.03;;;23.37;42.89
22257;BME280;11297;42.686;23.374;2023-03-23T08:55:03;95097.63;;;24.21;41.30
22257;BME280;11297;42.686;23.374;2023-03-23T08:57:30;95100.25;;;24.46;35.98
22257;BME280;11297;42.686;23.374;2023-03-23T08:59:56;95091.91;;;24.51;38.71
22257;BME280;11297;42.686;23.374;2023-03-23T09:02:25;95097.25;;;24.33;38.82
22257;BME280;11297;42.686;23.374;2023-03-23T09:04:52;95094.56;;;24.51;34.87
22257;BME280;11297;42.686;23.374;2023-03-23T09:07:18;95102.03;;;24.83;39.26
22257;BME280;11297;42.686;23.374;2023-03-23T09:09:44;95099.94;;;25.25;37.89
22257;BME280;11297;42.686;23.374;2023-03-23T09:12:10;95096.88;;;25.84;37.27
22257;BME280;11297;42.686;23.374;2023-03-23T09:14:36;95086.78;;;25.58;32.46
22257;BME280;11297;42.686;23.374;2023-03-23T09:17:02;95087.38;;;24.34;32.51
22257;BME280;11297;42.686;23.374;2023-03-23T09:19:29;95094.22;;;24.24;33.45
22257;BME280;11297;42.686;23.374;2023-03-23T09:21:54;95095.34;;;24.23;36.16
22257;BME280;11297;42.686;23.374;2023-03-23T09:24:20;95090.06;;;24.09;34.34
22257;BME280;11297;42.686;23.374;2023-03-23T09:26:46;95084.28;;;24.56;36.43
22257;BME280;11297;42.686;23.374;2023-03-23T09:29:12;95095.91;;;24.93;37.54
22257;BME280;11297;42.686;23.374;2023-03-23T09:31:38;95092.78;;;25.19;35.57
22257;BME280;11297;42.686;23.374;2023-03-23T09:34:05;95071.44;;;24.41;29.31
22257;BME280;11297;42.686;23.374;2023-03-23T09:36:31;95069.16;;;24.22;30.91
22257;BME280;11297;42.686;23.374;2023-03-23T09:38:57;95084.03;;;23.78;33.11
22257;BME280;11297;42.686;23.374;2023-03-23T09:50:17;95069.94;;;23.32;33.43
22257;BME280;11297;42.686;23.374;2023-03-23T09:52:55;95073.00;;;23.55;31.71
22257;BME280;11297;42.686;23.374;2023-03-23T09:55:22;95073.00;;;23.58;34.55
22257;BME280;11297;42.686;23.374;2023-03-23T10:00:24;95066.97;;;23.65;32.54
22257;BME280;11297;42.686;23.374;2023-03-23T10:05:52;95065.41;;;23.95;32.99
22257;BME280;11297;42.686;23.374;2023-03-23T10:08:25;95062.78;;;23.57;31.28
22257;BME280;11297;42.686;23.374;2023-03-23T10:16:04;95066.09;;;23.09;37.14
22257;BME280;11297;42.686;23.374;2023-03-23T10:18:58;95078.88;;;22.72;41.46
22257;BME280;11297;42.686;23.374;2023-03-23T10:21:26;95072.38;;;22.59;39.36
22257;BME280;11297;42.686;23.374;2023-03-23T10:32:08;95051.94;;;22.57;36.37
22257;BME280;11297;42.686;23.374;2023-03-23T10:34:54;95058.94;;;23.20;44.71
22257;BME280;11297;42.686;23.374;2023-03-23T10:39:57;95041.13;;;24.07;34.91
22257;BME280;11297;42.686;23.374;2023-03-23T10:42:32;95045.22;;;24.50;38.47
22257;BME280;11297;42.686;23.374;2023-03-23T10:45:24;95047.06;;;24.59;34.54
22257;BME280;11297;42.686;23.374;2023-03-23T10:48:22;95048.09;;;24.86;36.56
22257;BME280;11297;42.686;23.374;2023-03-23T10:50:52;95040.13;;;24.83;31.40
22257;BME280;11297;42.686;23.374;2023-03-23T10:53:42;95044.28;;;24.91;35.50
22257;BME280;11297;42.686;23.374;2023-03-23T10:56:34;95044.44;;;24.52;35.61
22257;BME280;11297;42.686;23.374;2023-03-23T10:59:11;95030.00;;;24.50;31.10
22257;BME280;11297;42.686;23.374;2023-03-23T11:01:37;95031.50;;;24.61;34.68
22257;BME280;11297;42.686;23.374;2023-03-23T11:04:03;95041.81;;;24.42;32.90
22257;BME280;11297;42.686;23.374;2023-03-23T11:06:36;95043.72;;;24.42;35.04
22257;BME280;11297;42.686;23.374;2023-03-23T11:09:19;95032.69;;;24.53;35.92
22257;BME280;11297;42.686;23.374;2023-03-23T11:11:53;95035.00;;;24.38;31.39
22257;BME280;11297;42.686;23.374;2023-03-23T11:17:00;95026.69;;;24.25;32.87
22257;BME280;11297;42.686;23.374;2023-03-23T11:19:32;95024.41;;;24.17;35.21
22257;BME280;11297;42.686;23.374;2023-03-23T11:24:34;95013.47;;;23.01;34.11
22257;BME280;11297;42.686;23.374;2023-03-23T11:27:00;95006.25;;;22.94;35.62
22257;BME280;11297;42.686;23.374;2023-03-23T11:29:28;95006.97;;;22.77;34.54
22257;BME280;11297;42.686;23.374;2023-03-23T11:34:30;95004.50;;;21.63;34.36
22257;BME280;11297;42.686;23.374;2023-03-23T11:37:03;95003.59;;;21.99;37.13
22257;BME280;11297;42.686;23.374;2023-03-23T11:39:31;95002.66;;;21.71;34.85
22257;BME280;11297;42.686;23.374;2023-03-23T11:41:59;95001.56;;;21.72;36.89
22257;BME280;11297;42.686;23.374;2023-03-23T11:44:41;94941.94;;;21.92;39.95
22257;BME280;11297;42.686;23.374;2023-03-23T11:49:57;94995.56;;;22.59;37.73
22257;BME280;11297;42.686;23.374;2023-03-23T11:58:13;94989.53;;;22.73;37.69
22257;BME280;11297;42.686;23.374;2023-03-23T12:00:51;94986.91;;;22.87;37.28
22257;BME280;11297;42.686;23.374;2023-03-23T12:14:19;94981.19;;;21.76;34.10
22257;BME280;11297;42.686;23.374;2023-03-23T12:17:10;94971.03;;;21.92;35.30
22257;BME280;11297;42.686;23.374;2023-03-23T12:42:05;94953.88;;;21.65;39.26
22257;BME280;11297;42.686;23.374;2023-03-23T12:44:44;94948.28;;;21.73;34.29
22257;BME280;11297;42.686;23.374;2023-03-23T12:58:07;94948.19;;;20.30;35.11
22257;BME280;11297;42.686;23.374;2023-03-23T13:03:30;94953.84;;;19.70;35.91
22257;BME280;11297;42.686;23.374;2023-03-23T13:06:18;94959.94;;;19.49;36.43
22257;BME280;11297;42.686;23.374;2023-03-23T13:08:55;94948.38;;;19.31;36.85
22257;BME280;11297;42.686;23.374;2023-03-23T13:11:36;94947.13;;;19.21;37.51
22257;BME280;11297;42.686;23.374;2023-03-23T13:17:02;94947.31;;;18.87;38.23
22257;BME280;11297;42.686;23.374;2023-03-23T13:19:34;94945.13;;;18.93;38.16
22257;BME280;11297;42.686;23.374;2023-03-23T13:22:11;94939.50;;;18.94;37.80
22257;BME280;11297;42.686;23.374;2023-03-23T13:24:50;94933.16;;;18.99;38.21
22257;BME280;11297;42.686;23.374;2023-03-23T13:27:16;94939.97;;;19.00;38.06
22257;BME280;11297;42.686;23.374;2023-03-23T13:29:45;94929.31;;;18.70;37.87
22257;BME280;11297;42.686;23.374;2023-03-23T13:32:15;94945.78;;;18.86;37.94
22257;BME280;11297;42.686;23.374;2023-03-23T13:34:42;94941.03;;;18.73;38.54
22257;BME280;11297;42.686;23.374;2023-03-23T13:42:23;94931.16;;;18.67;38.46
22257;BME280;11297;42.686;23.374;2023-03-23T13:47:27;94926.28;;;18.46;38.78
22257;BME280;11297;42.686;23.374;2023-03-23T13:49:57;94927.78;;;18.25;39.06
22257;BME280;11297;42.686;23.374;2023-03-23T14:03:02;94922.22;;;18.30;39.02
22257;BME280;11297;42.686;23.374;2023-03-23T14:05:48;94906.69;;;18.44;42.65
22257;BME280;11297;42.686;23.374;2023-03-23T14:11:13;94903.75;;;18.93;42.09
22257;BME280;11297;42.686;23.374;2023-03-23T14:13:58;94908.88;;;19.05;38.95
22257;BME280;11297;42.686;23.374;2023-03-23T14:19:03;94903.13;;;18.55;38.71
22257;BME280;11297;42.686;23.374;2023-03-23T14:21:32;94909.63;;;18.39;39.50
22257;BME280;11297;42.686;23.374;2023-03-23T14:24:03;94908.19;;;18.22;39.40
22257;BME280;11297;42.686;23.374;2023-03-23T14:26:33;94920.28;;;18.08;40.07
22257;BME280;11297;42.686;23.374;2023-03-23T14:28:59;94911.03;;;17.95;40.03
22257;BME280;11297;42.686;23.374;2023-03-23T14:31:27;94906.34;;;17.85;40.34
22257;BME280;11297;42.686;23.374;2023-03-23T14:33:55;94900.03;;;17.90;40.08
22257;BME280;11297;42.686;23.374;2023-03-23T14:36:23;94906.34;;;17.85;39.93
22257;BME280;11297;42.686;23.374;2023-03-23T14:41:41;94903.31;;;17.83;40.57
22257;BME280;11297;42.686;23.374;2023-03-23T14:44:14;94908.06;;;17.78;41.21
22257;BME280;11297;42.686;23.374;2023-03-23T14:46:42;94907.16;;;17.71;41.16
22257;BME280;11297;42.686;23.374;2023-03-23T14:49:14;94909.03;;;17.70;41.16
22257;BME280;11297;42.686;23.374;2023-03-23T14:51:54;94907.13;;;17.52;41.34
22257;BME280;11297;42.686;23.374;2023-03-23T14:54:26;94893.88;;;17.64;41.69
22257;BME280;11297;42.686;23.374;2023-03-23T14:56:52;94907.56;;;17.72;41.30
22257;BME280;11297;42.686;23.374;2023-03-23T14:59:18;94893.38;;;17.77;41.33
22257;BME280;11297;42.686;23.374;2023-03-23T15:01:46;94897.50;;;17.74;41.26
22257;BME280;11297;42.686;23.374;2023-03-23T15:04:19;94899.47;;;17.62;41.33
22257;BME280;11297;42.686;23.374;2023-03-23T15:06:59;94864.44;;;17.36;41.82
22257;BME280;11297;42.686;23.374;2023-03-23T15:09:25;94899.25;;;17.52;41.86
22257;BME280;11297;42.686;23.374;2023-03-23T15:12:00;94902.34;;;17.38;42.35
22257;BME280;11297;42.686;23.374;2023-03-23T15:14:51;94891.16;;;17.41;42.61
22257;BME280;11297;42.686;23.374;2023-03-23T15:17:31;94894.53;;;17.23;43.09
22257;BME280;11297;42.686;23.374;2023-03-23T15:20:06;94892.75;;;17.27;43.39
22257;BME280;11297;42.686;23.374;2023-03-23T15:22:32;94890.03;;;17.23;43.43
22257;BME280;11297;42.686;23.374;2023-03-23T15:25:17;94885.13;;;17.22;42.77
22257;BME280;11297;42.686;23.374;2023-03-23T15:27:52;94890.03;;;17.08;43.25
22257;BME280;11297;42.686;23.374;2023-03-23T15:32:47;94899.28;;;17.02;43.45
22257;BME280;11297;42.686;23.374;2023-03-23T15:35:23;94907.44;;;16.97;43.35
22257;BME280;11297;42.686;23.374;2023-03-23T15:38:02;94907.16;;;17.02;43.61
22257;BME280;11297;42.686;23.374;2023-03-23T15:40:33;94892.94;;;16.88;43.56
22257;BME280;11297;42.686;23.374;2023-03-23T15:46:03;94901.50;;;17.00;43.03